createdAt,value
2023-04-27T00:00:52.709Z,4.97
2023-04-27T00:01:52.775Z,5.14
2023-04-27T00:02:52.977Z,5.10
2023-04-27T00:03:53.102Z,5.47
2023-04-27T00:04:53.113Z,5.48
2023-04-27T00:05:52.969Z,5.64
2023-04-27T00:06:52.873Z,5.10
2023-04-27T00:07:52.914Z,4.69
2023-04-27T00:08:52.951Z,4.63
2023-04-27T00:09:52.959Z,5.47
2023-04-27T00:10:52.996Z,5.91
2023-04-27T00:11:53.014Z,5.53
2023-04-27T00:12:53.063Z,5.27
2023-04-27T00:13:53.084Z,5.37
2023-04-27T00:14:53.138Z,5.16
2023-04-27T00:15:53.174Z,5.01
2023-04-27T00:16:53.301Z,5.21
2023-04-27T00:17:53.298Z,5.79
2023-04-27T00:18:53.276Z,5.54
2023-04-27T00:19:53.289Z,5.73
2023-04-27T00:20:53.303Z,5.34
2023-04-27T00:21:53.347Z,5.67
2023-04-27T00:22:53.380Z,6.10
2023-04-27T00:23:53.408Z,5.27
2023-04-27T00:24:53.441Z,5.24
2023-04-27T00:25:53.494Z,5.55
2023-04-27T00:26:53.554Z,5.14
2023-04-27T00:27:53.616Z,5.43
2023-04-27T00:28:53.638Z,5.64
2023-04-27T00:29:53.647Z,5.37
2023-04-27T00:30:53.710Z,5.73
2023-04-27T00:31:53.862Z,6.26
2023-04-27T00:32:53.814Z,6.09
2023-04-27T00:33:53.836Z,5.94
2023-04-27T00:34:53.857Z,6.14
2023-04-27T00:35:53.890Z,5.38
2023-04-27T00:36:53.914Z,6.15
2023-04-27T00:37:53.991Z,5.66
2023-04-27T00:38:54.005Z,5.76
2023-04-27T00:39:54.061Z,6.18
2023-04-27T00:40:54.073Z,5.79
2023-04-27T00:41:54.102Z,4.90
2023-04-27T00:42:54.137Z,5.60
2023-04-27T00:43:54.184Z,5.34
2023-04-27T00:44:54.180Z,5.77
2023-04-27T00:45:54.239Z,4.84
2023-04-27T00:46:54.253Z,4.96
2023-04-27T00:47:54.285Z,5.18
2023-04-27T00:48:54.300Z,4.70
2023-04-27T00:49:54.361Z,5.33
2023-04-27T00:50:54.421Z,5.61
2023-04-27T00:51:54.461Z,5.54
2023-04-27T00:52:54.481Z,5.01
2023-04-27T00:53:54.538Z,4.63
2023-04-27T00:54:54.576Z,5.17
2023-04-27T00:55:54.619Z,4.83
2023-04-27T00:56:54.651Z,5.30
2023-04-27T00:57:54.711Z,5.01
2023-04-27T00:58:54.718Z,5.25
2023-04-27T00:59:54.729Z,5.15
2023-04-27T01:00:54.782Z,5.48
2023-04-27T01:01:54.791Z,5.52
2023-04-27T01:02:54.917Z,5.67
2023-04-27T01:03:54.949Z,5.20
2023-04-27T01:04:54.830Z,5.01
2023-04-27T01:05:54.860Z,5.05
2023-04-27T01:06:54.906Z,5.12
2023-04-27T01:07:54.916Z,5.69
2023-04-27T01:08:54.968Z,5.42
2023-04-27T01:09:54.963Z,5.49
2023-04-27T01:10:55.002Z,5.80
2023-04-27T01:11:55.022Z,6.17
2023-04-27T01:12:55.044Z,6.24
2023-04-27T01:13:55.068Z,5.50
2023-04-27T01:14:55.087Z,5.83
2023-04-27T01:15:55.104Z,6.02
2023-04-27T01:16:55.338Z,5.69
2023-04-27T01:17:55.225Z,5.72
2023-04-27T01:18:55.237Z,5.35
2023-04-27T01:19:55.312Z,5.85
2023-04-27T01:20:55.345Z,5.58
2023-04-27T01:21:55.400Z,5.29
2023-04-27T01:22:55.440Z,5.35
2023-04-27T01:23:55.505Z,5.48
2023-04-27T01:24:55.578Z,5.62
2023-04-27T01:25:55.630Z,6.26
2023-04-27T01:26:55.671Z,5.35
2023-04-27T01:27:55.738Z,5.66
2023-04-27T01:28:55.803Z,5.87
2023-04-27T01:29:55.839Z,5.97
2023-04-27T01:30:55.929Z,5.29
2023-04-27T01:31:55.966Z,6.41
2023-04-27T01:32:56.084Z,5.76
2023-04-27T01:33:56.088Z,5.52
2023-04-27T01:34:56.144Z,5.74
2023-04-27T01:35:56.215Z,5.92
2023-04-27T01:36:56.262Z,5.58
2023-04-27T01:37:56.347Z,6.28
2023-04-27T01:38:56.393Z,6.24
2023-04-27T01:39:56.477Z,5.87
2023-04-27T01:40:56.570Z,5.26
2023-04-27T01:41:58.366Z,5.74
2023-04-27T01:42:56.663Z,5.76
2023-04-27T01:43:56.704Z,5.76
2023-04-27T01:44:56.729Z,5.66
2023-04-27T01:45:56.838Z,5.72
2023-04-27T01:46:56.868Z,5.08
2023-04-27T01:47:56.943Z,5.62
2023-04-27T01:48:57.829Z,4.84
2023-04-27T01:49:57.044Z,5.85
2023-04-27T01:50:57.099Z,5.66
2023-04-27T01:51:57.169Z,5.58
2023-04-27T01:52:57.200Z,5.87
2023-04-27T01:53:57.278Z,5.42
2023-04-27T01:54:57.325Z,5.29
2023-04-27T01:55:57.374Z,5.10
2023-04-27T01:56:57.391Z,4.87
2023-04-27T01:57:57.491Z,5.69
2023-04-27T01:58:57.530Z,5.94
2023-04-27T01:59:57.604Z,5.71
2023-04-27T02:00:57.617Z,5.77
2023-04-27T02:01:57.726Z,5.47
2023-04-27T02:02:57.920Z,5.81
2023-04-27T02:03:57.936Z,5.42
2023-04-27T02:04:57.915Z,5.28
2023-04-27T02:05:57.908Z,5.71
2023-04-27T02:06:57.912Z,5.15
2023-04-27T02:07:57.957Z,5.23
2023-04-27T02:08:58.009Z,5.30
2023-04-27T02:09:58.080Z,5.82
2023-04-27T02:10:58.108Z,5.75
2023-04-27T02:11:58.168Z,6.28
2023-04-27T02:12:58.198Z,6.00
2023-04-27T02:13:58.284Z,6.06
2023-04-27T02:14:58.309Z,5.34
2023-04-27T02:15:58.424Z,5.91
2023-04-27T02:16:58.431Z,5.89
2023-04-27T02:17:58.525Z,5.76
2023-04-27T02:18:58.519Z,5.65
2023-04-27T02:19:58.579Z,6.11
2023-04-27T02:20:58.641Z,6.03
2023-04-27T02:21:58.682Z,6.08
2023-04-27T02:22:58.744Z,6.01
2023-04-27T02:23:58.813Z,6.32
2023-04-27T02:24:58.878Z,5.72
2023-04-27T02:25:58.945Z,6.04
2023-04-27T02:26:58.977Z,6.00
2023-04-27T02:27:59.052Z,6.12
2023-04-27T02:28:59.091Z,6.20
2023-04-27T02:29:59.134Z,5.82
2023-04-27T02:30:59.201Z,5.71
2023-04-27T02:31:59.961Z,6.21
2023-04-27T02:32:59.326Z,5.74
2023-04-27T02:33:59.353Z,5.68
2023-04-27T02:34:59.391Z,5.80
2023-04-27T02:35:59.492Z,6.10
2023-04-27T02:36:59.507Z,5.68
2023-04-27T02:37:59.560Z,4.77
2023-04-27T02:38:59.592Z,5.54
2023-04-27T02:39:59.608Z,5.81
2023-04-27T02:40:59.634Z,5.67
2023-04-27T02:41:59.661Z,5.32
2023-04-27T02:42:59.715Z,5.50
2023-04-27T02:43:59.737Z,5.78
2023-04-27T02:44:59.770Z,5.71
2023-04-27T02:45:59.830Z,5.96
2023-04-27T02:46:59.956Z,5.80
2023-04-27T02:47:59.944Z,5.73
2023-04-27T02:48:59.902Z,5.93
2023-04-27T02:49:59.940Z,6.31
2023-04-27T02:50:59.991Z,5.72
2023-04-27T02:52:00.126Z,5.81
2023-04-27T02:53:00.026Z,6.06
2023-04-27T02:54:00.028Z,6.11
2023-04-27T02:55:00.029Z,5.62
2023-04-27T02:56:00.054Z,6.28
2023-04-27T02:57:00.038Z,6.07
2023-04-27T02:58:00.383Z,5.28
2023-04-27T02:59:00.043Z,5.80
2023-04-27T03:00:00.118Z,6.19
2023-04-27T03:01:00.123Z,5.42
2023-04-27T03:02:00.148Z,5.97
2023-04-27T03:03:01.034Z,5.56
2023-04-27T03:04:00.493Z,6.18
2023-04-27T03:05:00.267Z,5.69
2023-04-27T03:06:00.298Z,6.26
2023-04-27T03:07:00.324Z,6.25
2023-04-27T03:08:00.384Z,5.81
2023-04-27T03:09:00.564Z,6.44
2023-04-27T03:10:00.465Z,5.96
2023-04-27T03:11:00.502Z,6.01
2023-04-27T03:12:00.543Z,6.22
2023-04-27T03:13:00.601Z,6.37
2023-04-27T03:14:00.663Z,5.93
2023-04-27T03:15:00.707Z,6.23
2023-04-27T03:16:00.781Z,6.07
2023-04-27T03:17:00.803Z,6.14
2023-04-27T03:18:00.917Z,5.28
2023-04-27T03:19:00.944Z,5.81
2023-04-27T03:20:01.010Z,5.82
2023-04-27T03:21:01.032Z,6.10
2023-04-27T03:22:01.081Z,5.25
2023-04-27T03:23:01.106Z,6.23
2023-04-27T03:24:01.204Z,5.58
2023-04-27T03:25:01.170Z,5.25
2023-04-27T03:26:01.174Z,5.40
2023-04-27T03:27:01.186Z,5.62
2023-04-27T03:28:01.228Z,5.14
2023-04-27T03:29:01.220Z,5.31
2023-04-27T03:30:01.209Z,5.02
2023-04-27T03:31:01.212Z,5.10
2023-04-27T03:32:01.275Z,4.72
2023-04-27T03:33:01.329Z,4.64
2023-04-27T03:34:01.275Z,4.29
2023-04-27T03:35:01.250Z,4.83
2023-04-27T03:36:01.246Z,4.57
2023-04-27T03:37:01.226Z,5.45
2023-04-27T03:38:01.267Z,5.22
2023-04-27T03:39:01.258Z,5.19
2023-04-27T03:40:01.264Z,5.60
2023-04-27T03:41:01.267Z,4.64
2023-04-27T03:42:01.297Z,4.95
2023-04-27T03:43:01.312Z,5.21
2023-04-27T03:44:01.359Z,5.57
2023-04-27T03:45:01.414Z,4.91
2023-04-27T03:46:01.475Z,5.24
2023-04-27T03:47:01.530Z,5.16
2023-04-27T03:48:01.622Z,4.64
2023-04-27T03:49:01.594Z,5.84
2023-04-27T03:50:01.607Z,4.89
2023-04-27T03:51:01.623Z,6.15
2023-04-27T03:52:01.628Z,5.56
2023-04-27T03:53:01.615Z,5.51
2023-04-27T03:54:01.613Z,5.54
2023-04-27T03:55:01.634Z,5.67
2023-04-27T03:56:01.633Z,5.56
2023-04-27T03:57:01.656Z,5.57
2023-04-27T03:58:01.698Z,5.04
2023-04-27T03:59:01.709Z,5.24
2023-04-27T04:00:01.722Z,6.16
2023-04-27T04:01:01.753Z,5.45
2023-04-27T04:02:01.770Z,5.92
2023-04-27T04:03:01.838Z,6.69
2023-04-27T04:04:01.811Z,6.12
2023-04-27T04:05:01.807Z,6.34
2023-04-27T04:06:01.779Z,7.66
2023-04-27T04:07:01.812Z,8.52
2023-04-27T04:08:01.819Z,8.02
2023-04-27T04:09:01.849Z,8.20
2023-04-27T04:10:01.868Z,7.99
2023-04-27T04:11:01.890Z,6.88
2023-04-27T04:12:01.920Z,7.73
2023-04-27T04:13:01.970Z,7.76
2023-04-27T04:14:01.991Z,8.06
2023-04-27T04:15:02.125Z,8.20
2023-04-27T04:16:02.060Z,7.72
2023-04-27T04:17:02.086Z,10.12
2023-04-27T04:18:02.154Z,10.47
2023-04-27T04:19:02.147Z,11.69
2023-04-27T04:20:02.160Z,11.05
2023-04-27T04:21:02.176Z,10.63
2023-04-27T04:22:02.155Z,11.36
2023-04-27T04:23:02.198Z,9.45
2023-04-27T04:24:02.227Z,10.09
2023-04-27T04:25:02.414Z,8.81
2023-04-27T04:26:02.324Z,8.53
2023-04-27T04:27:02.255Z,9.25
2023-04-27T04:28:02.252Z,8.32
2023-04-27T04:29:02.367Z,8.47
2023-04-27T04:30:02.401Z,8.48
2023-04-27T04:31:02.352Z,8.59
2023-04-27T04:32:02.294Z,9.34
2023-04-27T04:33:02.339Z,8.35
2023-04-27T04:34:02.283Z,9.22
2023-04-27T04:35:02.363Z,8.02
2023-04-27T04:36:02.279Z,7.20
2023-04-27T04:37:02.282Z,6.74
2023-04-27T04:38:02.301Z,7.16
2023-04-27T04:39:02.301Z,6.30
2023-04-27T04:40:02.328Z,7.16
2023-04-27T04:41:02.372Z,6.81
2023-04-27T04:42:02.364Z,7.02
2023-04-27T04:43:02.395Z,7.20
2023-04-27T04:44:02.395Z,7.29
2023-04-27T04:45:02.394Z,6.83
2023-04-27T04:46:02.417Z,7.05
2023-04-27T04:47:02.476Z,6.46
2023-04-27T04:48:02.465Z,7.21
2023-04-27T04:49:02.454Z,7.78
2023-04-27T04:50:02.585Z,7.04
2023-04-27T04:51:02.498Z,6.76
2023-04-27T04:52:02.553Z,7.22
2023-04-27T04:53:02.580Z,6.66
2023-04-27T04:54:02.598Z,6.73
2023-04-27T04:55:02.665Z,6.33
2023-04-27T04:56:02.690Z,6.64
2023-04-27T04:57:02.721Z,6.81
2023-04-27T04:58:02.766Z,7.20
2023-04-27T04:59:02.795Z,6.82
2023-04-27T05:00:02.837Z,6.49
2023-04-27T05:01:02.857Z,6.63
2023-04-27T05:02:03.013Z,6.79
2023-04-27T05:03:03.071Z,7.31
2023-04-27T05:04:03.119Z,6.61
2023-04-27T05:05:02.922Z,6.77
2023-04-27T05:06:03.039Z,6.89
2023-04-27T05:07:02.965Z,7.27
2023-04-27T05:08:02.986Z,6.45
2023-04-27T05:09:03.018Z,7.07
2023-04-27T05:10:03.096Z,7.40
2023-04-27T05:11:03.146Z,7.95
2023-04-27T05:12:03.195Z,6.94
2023-04-27T05:13:04.631Z,7.44
2023-04-27T05:14:03.229Z,6.89
2023-04-27T05:15:03.214Z,6.50
2023-04-27T05:16:03.241Z,6.62
2023-04-27T05:17:03.206Z,6.97
2023-04-27T05:18:04.915Z,7.00
2023-04-27T05:19:03.190Z,7.15
2023-04-27T05:20:03.170Z,6.39
2023-04-27T05:21:03.176Z,6.41
2023-04-27T05:22:03.157Z,7.77
2023-04-27T05:23:03.183Z,6.78
2023-04-27T05:24:03.151Z,7.43
2023-04-27T05:25:03.146Z,8.43
2023-04-27T05:26:03.153Z,8.16
2023-04-27T05:27:03.297Z,7.91
2023-04-27T05:28:03.131Z,7.90
2023-04-27T05:29:03.180Z,8.00
2023-04-27T05:30:03.177Z,8.04
2023-04-27T05:31:03.217Z,8.28
2023-04-27T05:32:03.271Z,7.89
2023-04-27T05:33:03.398Z,7.99
2023-04-27T05:34:03.412Z,8.02
2023-04-27T05:35:03.382Z,8.31
2023-04-27T05:36:03.492Z,8.58
2023-04-27T05:37:03.483Z,7.87
2023-04-27T05:38:03.539Z,7.62
2023-04-27T05:39:03.588Z,8.67
2023-04-27T05:40:03.711Z,8.58
2023-04-27T05:41:03.885Z,7.61
2023-04-27T05:42:03.804Z,8.74
2023-04-27T05:43:03.846Z,8.25
2023-04-27T05:44:03.901Z,9.30
2023-04-27T05:45:03.990Z,8.46
2023-04-27T05:46:04.015Z,8.61
2023-04-27T05:47:04.070Z,8.15
2023-04-27T05:48:04.153Z,8.77
2023-04-27T05:49:04.304Z,8.22
2023-04-27T05:50:04.252Z,7.85
2023-04-27T05:51:04.303Z,8.59
2023-04-27T05:52:04.319Z,8.10
2023-04-27T05:53:04.412Z,8.23
2023-04-27T05:54:04.400Z,9.19
2023-04-27T05:55:04.507Z,8.16
2023-04-27T05:56:04.606Z,7.52
2023-04-27T05:57:04.585Z,8.31
2023-04-27T05:58:08.520Z,8.93
2023-04-27T05:59:04.669Z,8.26
2023-04-27T06:00:04.614Z,8.14
2023-04-27T06:01:04.633Z,8.42
2023-04-27T06:02:04.706Z,8.69
2023-04-27T06:03:04.796Z,8.06
2023-04-27T06:04:04.723Z,7.93
2023-04-27T06:05:04.622Z,8.88
2023-04-27T06:06:04.608Z,7.66
2023-04-27T06:07:04.583Z,8.19
2023-04-27T06:08:05.420Z,8.06
2023-04-27T06:09:04.591Z,8.06
2023-04-27T06:10:04.549Z,8.59
2023-04-27T06:11:04.530Z,8.62
2023-04-27T06:12:04.561Z,8.43
2023-04-27T06:13:04.545Z,8.40
2023-04-27T06:14:04.538Z,8.43
2023-04-27T06:15:04.594Z,8.69
2023-04-27T06:16:04.713Z,9.11
2023-04-27T06:17:04.745Z,8.65
2023-04-27T06:18:04.837Z,8.77
2023-04-27T06:19:04.834Z,8.51
2023-04-27T06:20:04.973Z,8.41
2023-04-27T06:21:04.920Z,8.60
2023-04-27T06:22:04.991Z,8.37
2023-04-27T06:23:05.029Z,8.45
2023-04-27T06:24:05.110Z,8.87
2023-04-27T06:25:05.160Z,8.74
2023-04-27T06:26:05.247Z,9.06
2023-04-27T06:27:05.278Z,8.46
2023-04-27T06:28:05.311Z,8.80
2023-04-27T06:29:05.392Z,8.30
2023-04-27T06:30:05.413Z,8.80
2023-04-27T06:31:05.589Z,8.82
2023-04-27T06:32:05.795Z,7.87
2023-04-27T06:33:05.628Z,9.03
2023-04-27T06:34:05.628Z,9.22
2023-04-27T06:35:05.661Z,9.46
2023-04-27T06:36:05.933Z,9.27
2023-04-27T06:37:05.783Z,8.71
2023-04-27T06:38:07.529Z,9.01
2023-04-27T06:39:05.884Z,9.02
2023-04-27T06:40:05.934Z,9.17
2023-04-27T06:41:05.993Z,8.63
2023-04-27T06:42:06.048Z,8.96
2023-04-27T06:43:06.038Z,9.18
2023-04-27T06:44:06.093Z,8.98
2023-04-27T06:45:06.153Z,9.49
2023-04-27T06:46:06.290Z,8.47
2023-04-27T06:47:06.250Z,9.41
2023-04-27T06:48:06.453Z,9.02
2023-04-27T06:49:06.392Z,9.48
2023-04-27T06:50:06.439Z,9.39
2023-04-27T06:51:06.507Z,9.89
2023-04-27T06:52:06.584Z,9.61
2023-04-27T06:53:06.595Z,8.87
2023-04-27T06:54:06.700Z,9.31
2023-04-27T06:55:06.807Z,8.62
2023-04-27T06:56:06.825Z,9.01
2023-04-27T06:57:06.804Z,9.07
2023-04-27T06:58:06.876Z,8.27
2023-04-27T06:59:28.373Z,9.15
2023-04-27T07:00:28.213Z,8.77
2023-04-27T07:01:28.209Z,9.14
2023-04-27T07:02:28.223Z,8.68
2023-04-27T07:03:28.286Z,10.03
2023-04-27T07:04:28.323Z,9.71
2023-04-27T07:05:28.161Z,9.40
2023-04-27T07:06:28.173Z,9.35
2023-04-27T07:07:28.174Z,8.37
2023-04-27T07:08:28.433Z,8.92
2023-04-27T07:09:28.200Z,9.19
2023-04-27T07:10:28.128Z,8.56
2023-04-27T07:11:28.131Z,8.28
2023-04-27T07:12:28.196Z,8.92
2023-04-27T07:13:28.154Z,8.66
2023-04-27T07:14:28.105Z,9.09
2023-04-27T07:15:28.159Z,8.83
2023-04-27T07:16:28.154Z,9.52
2023-04-27T07:17:28.204Z,7.98
2023-04-27T07:18:28.393Z,8.14
2023-04-27T07:19:28.085Z,8.86
2023-04-27T07:20:28.058Z,8.87
2023-04-27T07:21:28.059Z,9.37
2023-04-27T07:22:28.061Z,9.40
2023-04-27T07:23:28.401Z,9.70
2023-04-27T07:24:28.116Z,9.22
2023-04-27T07:25:28.038Z,8.64
2023-04-27T07:26:28.023Z,9.79
2023-04-27T07:27:28.000Z,9.16
2023-04-27T07:28:28.437Z,9.42
2023-04-27T07:29:28.218Z,9.92
2023-04-27T07:30:28.026Z,10.44
2023-04-27T07:31:28.071Z,9.68
2023-04-27T07:32:28.009Z,8.82
2023-04-27T07:33:28.053Z,8.91
2023-04-27T07:34:32.844Z,9.23
2023-04-27T07:35:29.086Z,8.77
2023-04-27T07:36:28.081Z,8.91
2023-04-27T07:37:28.886Z,9.42
2023-04-27T07:38:28.706Z,9.91
2023-04-27T07:39:28.091Z,8.37
2023-04-27T07:40:28.033Z,9.12
2023-04-27T07:41:28.045Z,9.20
2023-04-27T07:42:28.046Z,8.50
2023-04-27T07:43:28.052Z,8.30
2023-04-27T07:44:28.035Z,9.37
2023-04-27T07:45:28.050Z,9.03
2023-04-27T07:46:28.013Z,9.54
2023-04-27T07:47:27.981Z,8.80
2023-04-27T07:48:28.028Z,9.03
2023-04-27T07:49:28.071Z,9.68
2023-04-27T07:50:27.972Z,9.24
2023-04-27T07:51:28.012Z,8.78
2023-04-27T07:52:27.952Z,9.60
2023-04-27T07:53:27.955Z,9.24
2023-04-27T07:54:27.970Z,9.44
2023-04-27T07:55:27.953Z,9.54
2023-04-27T07:56:27.939Z,9.43
2023-04-27T07:57:27.925Z,9.29
2023-04-27T07:58:27.932Z,9.04
2023-04-27T07:59:27.924Z,8.28
2023-04-27T08:00:27.918Z,7.47
2023-04-27T08:01:27.886Z,8.81
2023-04-27T08:02:28.069Z,8.48
2023-04-27T08:03:28.159Z,8.38
2023-04-27T08:04:28.078Z,8.71
2023-04-27T08:05:28.253Z,8.22
2023-04-27T08:06:28.658Z,8.69
2023-04-27T08:07:28.159Z,8.05
2023-04-27T08:08:27.921Z,8.76
2023-04-27T08:09:27.865Z,8.57
2023-04-27T08:10:27.852Z,8.70
2023-04-27T08:11:27.831Z,9.07
2023-04-27T08:12:27.850Z,8.93
2023-04-27T08:13:28.924Z,8.97
2023-04-27T08:14:27.825Z,8.88
2023-04-27T08:15:27.877Z,8.34
2023-04-27T08:16:28.005Z,9.55
2023-04-27T08:17:27.839Z,7.93
2023-04-27T08:18:27.884Z,6.78
2023-04-27T08:19:27.850Z,6.57
2023-04-27T08:20:27.846Z,7.96
2023-04-27T08:21:28.908Z,7.88
2023-04-27T08:22:27.824Z,8.12
2023-04-27T08:23:27.861Z,8.36
2023-04-27T08:24:27.818Z,8.19
2023-04-27T08:25:27.798Z,7.48
2023-04-27T08:26:27.820Z,8.14
2023-04-27T08:27:27.781Z,7.90
2023-04-27T08:28:27.841Z,6.92
2023-04-27T08:29:29.083Z,6.82
2023-04-27T08:30:27.805Z,7.90
2023-04-27T08:31:27.779Z,7.90
2023-04-27T08:32:27.776Z,8.55
2023-04-27T08:33:27.813Z,7.61
2023-04-27T08:34:27.812Z,7.08
2023-04-27T08:35:27.744Z,7.47
2023-04-27T08:36:27.931Z,8.22
2023-04-27T08:37:27.739Z,8.63
2023-04-27T08:38:27.707Z,8.93
2023-04-27T08:39:27.718Z,8.46
2023-04-27T08:40:27.691Z,7.66
2023-04-27T08:41:27.689Z,8.13
2023-04-27T08:42:27.717Z,7.56
2023-04-27T08:43:27.729Z,8.05
2023-04-27T08:44:27.822Z,8.23
2023-04-27T08:45:27.826Z,7.77
2023-04-27T08:46:28.063Z,7.33
2023-04-27T08:47:39.077Z,7.15
2023-04-27T08:48:29.036Z,6.83
2023-04-27T08:49:27.967Z,6.81
2023-04-27T08:50:27.917Z,7.12
2023-04-27T08:51:27.921Z,7.33
2023-04-27T08:52:28.119Z,7.68
2023-04-27T08:53:28.126Z,7.27
2023-04-27T08:54:27.939Z,7.21
2023-04-27T08:55:27.870Z,7.17
2023-04-27T08:56:27.907Z,7.22
2023-04-27T08:57:27.853Z,6.37
2023-04-27T08:58:27.880Z,6.20
2023-04-27T08:59:27.917Z,6.39
2023-04-27T09:00:27.864Z,5.64
2023-04-27T09:01:27.945Z,5.52
2023-04-27T09:02:27.895Z,5.33
2023-04-27T09:03:27.906Z,6.08
2023-04-27T09:04:27.938Z,5.74
2023-04-27T09:05:27.865Z,5.52
2023-04-27T09:06:27.866Z,5.26
2023-04-27T09:07:28.649Z,5.72
2023-04-27T09:08:27.998Z,5.64
2023-04-27T09:09:27.905Z,5.77
2023-04-27T09:10:27.921Z,6.02
2023-04-27T09:11:27.928Z,5.79
2023-04-27T09:12:27.937Z,6.03
2023-04-27T09:13:27.957Z,6.53
2023-04-27T09:14:27.962Z,6.63
2023-04-27T09:15:27.986Z,7.15
2023-04-27T09:16:28.139Z,6.58
2023-04-27T09:17:28.091Z,6.21
2023-04-27T09:18:28.038Z,6.03
2023-04-27T09:19:28.034Z,6.19
2023-04-27T09:20:28.044Z,5.44
2023-04-27T09:21:28.038Z,5.84
2023-04-27T09:22:28.125Z,6.29
2023-04-27T09:23:28.095Z,6.32
2023-04-27T09:24:28.097Z,6.00
2023-04-27T09:25:28.129Z,6.18
2023-04-27T09:26:28.434Z,6.39
2023-04-27T09:27:29.659Z,6.73
2023-04-27T09:28:28.165Z,6.79
2023-04-27T09:29:28.473Z,6.92
2023-04-27T09:30:28.199Z,7.03
2023-04-27T09:31:28.435Z,6.30
2023-04-27T09:32:28.266Z,7.15
2023-04-27T09:33:28.253Z,6.48
2023-04-27T09:34:28.255Z,6.14
2023-04-27T09:35:28.244Z,4.75
2023-04-27T09:36:28.433Z,5.21
2023-04-27T09:37:28.281Z,5.13
2023-04-27T09:38:28.306Z,5.90
2023-04-27T09:39:28.393Z,5.63
2023-04-27T09:40:28.395Z,5.35
2023-04-27T09:41:28.453Z,5.81
2023-04-27T09:42:28.399Z,5.61
2023-04-27T09:43:28.385Z,5.97
2023-04-27T09:44:28.393Z,6.65
2023-04-27T09:45:28.490Z,5.86
2023-04-27T09:46:28.535Z,5.72
2023-04-27T09:47:28.522Z,5.61
2023-04-27T09:48:28.526Z,5.60
2023-04-27T09:49:28.559Z,5.88
2023-04-27T09:50:28.625Z,6.28
2023-04-27T09:51:28.990Z,6.14
2023-04-27T09:52:28.736Z,5.70
2023-04-27T09:53:28.731Z,5.37
2023-04-27T09:54:28.758Z,5.73
2023-04-27T09:55:28.819Z,5.81
2023-04-27T09:56:28.958Z,5.10
2023-04-27T09:57:28.900Z,5.17
2023-04-27T09:58:29.010Z,5.38
2023-04-27T09:59:29.427Z,5.00
2023-04-27T10:00:29.107Z,4.85
2023-04-27T10:01:29.196Z,4.63
2023-04-27T10:02:29.696Z,4.83
2023-04-27T10:03:29.277Z,5.63
2023-04-27T10:04:29.420Z,4.77
2023-04-27T10:05:29.970Z,4.62
2023-04-27T10:06:29.269Z,4.59
2023-04-27T10:07:29.247Z,5.13
2023-04-27T10:08:29.251Z,4.02
2023-04-27T10:09:29.232Z,4.51
2023-04-27T10:10:29.212Z,4.83
2023-04-27T10:11:29.220Z,3.98
2023-04-27T10:12:29.237Z,4.39
2023-04-27T10:13:29.209Z,4.20
2023-04-27T10:14:29.215Z,3.65
2023-04-27T10:15:29.185Z,4.22
2023-04-27T10:16:29.242Z,4.01
2023-04-27T10:17:29.227Z,3.88
2023-04-27T10:18:29.224Z,3.95
2023-04-27T10:19:29.220Z,3.63
2023-04-27T10:20:29.159Z,4.07
2023-04-27T10:21:29.155Z,3.18
2023-04-27T10:22:29.147Z,3.78
2023-04-27T10:23:29.168Z,3.55
2023-04-27T10:24:29.153Z,3.29
2023-04-27T10:25:29.226Z,3.60
2023-04-27T10:26:29.171Z,3.71
2023-04-27T10:27:29.216Z,3.32
2023-04-27T10:28:29.271Z,3.24
2023-04-27T10:29:29.318Z,3.25
2023-04-27T10:30:29.458Z,3.17
2023-04-27T10:31:29.597Z,3.22
2023-04-27T10:32:29.399Z,3.13
2023-04-27T10:33:29.358Z,3.47
2023-04-27T10:34:29.387Z,2.83
2023-04-27T10:35:29.393Z,2.86
2023-04-27T10:36:29.389Z,3.28
2023-04-27T10:37:29.400Z,3.10
2023-04-27T10:38:29.500Z,3.29
2023-04-27T10:39:43.744Z,3.71
2023-04-27T10:40:30.423Z,3.07
2023-04-27T10:41:29.418Z,3.01
2023-04-27T10:42:29.431Z,3.15
2023-04-27T10:43:29.403Z,3.24
2023-04-27T10:44:29.368Z,3.42
2023-04-27T10:45:31.435Z,3.38
2023-04-27T10:46:29.563Z,3.95
2023-04-27T10:47:29.662Z,4.22
2023-04-27T10:48:29.632Z,3.76
2023-04-27T10:49:29.711Z,3.61
2023-04-27T10:50:29.772Z,3.85
2023-04-27T10:51:29.955Z,4.33
2023-04-27T10:52:29.864Z,4.05
2023-04-27T10:53:29.886Z,3.78
2023-04-27T10:54:30.481Z,3.93
2023-04-27T10:55:30.016Z,3.87
2023-04-27T10:56:30.471Z,3.68
2023-04-27T10:57:30.102Z,3.53
2023-04-27T10:58:41.353Z,3.88
2023-04-27T10:59:31.110Z,4.14
2023-04-27T11:00:30.106Z,3.88
2023-04-27T11:01:30.224Z,3.92
2023-04-27T11:02:30.167Z,3.57
2023-04-27T11:03:30.146Z,3.85
2023-04-27T11:04:30.156Z,3.82
2023-04-27T11:05:30.088Z,3.89
2023-04-27T11:06:30.081Z,3.59
2023-04-27T11:07:30.068Z,3.88
2023-04-27T11:08:30.057Z,3.73
2023-04-27T11:09:30.127Z,3.83
2023-04-27T11:10:30.044Z,3.56
2023-04-27T11:11:30.095Z,4.14
2023-04-27T11:12:30.189Z,4.01
2023-04-27T11:13:30.223Z,3.60
2023-04-27T11:14:30.517Z,3.42
2023-04-27T11:15:30.220Z,3.69
2023-04-27T11:16:32.686Z,3.51
2023-04-27T11:17:30.265Z,3.85
2023-04-27T11:18:30.263Z,3.53
2023-04-27T11:19:30.200Z,3.81
2023-04-27T11:20:30.185Z,3.44
2023-04-27T11:21:30.480Z,3.63
2023-04-27T11:22:30.186Z,3.53
2023-04-27T11:23:30.171Z,3.15
2023-04-27T11:24:30.178Z,3.12
2023-04-27T11:25:30.203Z,3.35
2023-04-27T11:26:30.183Z,4.10
2023-04-27T11:27:30.155Z,3.99
2023-04-27T11:28:30.148Z,4.33
2023-04-27T11:29:30.139Z,3.60
2023-04-27T11:30:30.141Z,3.57
2023-04-27T11:31:30.138Z,3.40
2023-04-27T11:32:30.172Z,3.57
2023-04-27T11:33:30.107Z,3.26
2023-04-27T11:34:30.097Z,3.94
2023-04-27T11:35:30.088Z,3.71
2023-04-27T11:36:30.096Z,3.77
2023-04-27T11:37:30.096Z,3.84
2023-04-27T11:38:30.083Z,3.70
2023-04-27T11:39:30.074Z,3.83
2023-04-27T11:40:30.067Z,3.56
2023-04-27T11:41:30.061Z,3.72
2023-04-27T11:42:30.056Z,3.40
2023-04-27T11:43:30.041Z,3.64
2023-04-27T11:44:30.058Z,4.47
2023-04-27T11:45:30.045Z,4.14
2023-04-27T11:46:30.067Z,3.50
2023-04-27T11:47:30.056Z,3.46
2023-04-27T11:48:29.998Z,3.72
2023-04-27T11:49:29.995Z,3.15
2023-04-27T11:50:30.009Z,2.93
2023-04-27T11:51:30.009Z,3.33
2023-04-27T11:52:30.003Z,2.88
2023-04-27T11:53:29.979Z,3.35
2023-04-27T11:54:30.033Z,3.36
2023-04-27T11:55:29.977Z,3.70
2023-04-27T11:56:29.950Z,3.39
2023-04-27T11:57:29.967Z,3.62
2023-04-27T11:58:29.942Z,3.25
2023-04-27T11:59:29.958Z,3.44
2023-04-27T12:00:29.934Z,3.22
2023-04-27T12:01:37.488Z,3.27
2023-04-27T12:02:31.110Z,4.07
2023-04-27T12:03:30.113Z,2.94
2023-04-27T12:04:30.076Z,3.00
2023-04-27T12:05:30.167Z,3.47
2023-04-27T12:06:33.258Z,3.25
2023-04-27T12:07:29.908Z,3.28
2023-04-27T12:08:29.868Z,3.55
2023-04-27T12:09:29.905Z,3.57
2023-04-27T12:10:29.899Z,4.06
2023-04-27T12:11:29.884Z,4.18
2023-04-27T12:12:29.896Z,4.16
2023-04-27T12:13:29.853Z,3.96
2023-04-27T12:14:29.871Z,3.39
2023-04-27T12:15:29.819Z,3.95
2023-04-27T12:16:29.898Z,3.91
2023-04-27T12:17:29.856Z,3.26
2023-04-27T12:18:29.810Z,3.11
2023-04-27T12:19:29.788Z,3.16
2023-04-27T12:20:29.797Z,3.22
2023-04-27T12:21:29.780Z,3.57
2023-04-27T12:22:29.788Z,3.50
2023-04-27T12:23:29.796Z,3.22
2023-04-27T12:24:29.753Z,3.04
2023-04-27T12:25:29.742Z,3.76
2023-04-27T12:26:29.760Z,3.37
2023-04-27T12:27:29.757Z,3.11
2023-04-27T12:28:29.744Z,3.27
2023-04-27T12:29:29.741Z,3.37
2023-04-27T12:30:29.722Z,3.45
2023-04-27T12:31:29.782Z,3.24
2023-04-27T12:32:29.716Z,3.15
2023-04-27T12:33:29.708Z,3.09
2023-04-27T12:34:29.727Z,3.47
2023-04-27T12:35:29.698Z,3.08
2023-04-27T12:36:29.680Z,2.82
2023-04-27T12:37:29.666Z,3.16
2023-04-27T12:38:29.666Z,3.13
2023-04-27T12:39:29.680Z,2.75
2023-04-27T12:40:29.673Z,3.49
2023-04-27T12:41:29.649Z,2.66
2023-04-27T12:42:29.639Z,3.08
2023-04-27T12:43:29.635Z,3.13
2023-04-27T12:44:29.641Z,5.38
2023-04-27T12:45:30.000Z,8.91
2023-04-27T12:46:29.669Z,18.50
2023-04-27T12:47:46.410Z,14.95
2023-04-27T12:48:30.623Z,11.77
2023-04-27T12:49:30.504Z,6.74
2023-04-27T12:50:29.663Z,4.37
2023-04-27T12:51:29.709Z,6.72
2023-04-27T12:52:30.011Z,4.97
2023-04-27T12:53:29.808Z,4.22
2023-04-27T12:54:29.900Z,3.58
2023-04-27T12:55:34.240Z,3.22
2023-04-27T12:56:29.935Z,2.74
2023-04-27T12:57:29.932Z,2.89
2023-04-27T12:58:29.925Z,2.67
2023-04-27T12:59:29.913Z,3.30
2023-04-27T13:00:30.199Z,2.98
2023-04-27T13:01:29.945Z,3.55
2023-04-27T13:02:30.077Z,3.26
2023-04-27T13:03:30.065Z,2.77
2023-04-27T13:04:30.159Z,2.60
2023-04-27T13:05:32.107Z,2.67
2023-04-27T13:06:29.947Z,2.76
2023-04-27T13:07:30.156Z,2.83
2023-04-27T13:08:30.016Z,2.92
2023-04-27T13:09:29.958Z,3.38
2023-04-27T13:10:30.039Z,2.99
2023-04-27T13:11:30.042Z,2.94
2023-04-27T13:12:30.117Z,3.24
2023-04-27T13:13:30.210Z,3.14
2023-04-27T13:14:30.255Z,3.93
2023-04-27T13:15:30.325Z,3.09
2023-04-27T13:16:30.365Z,2.55
2023-04-27T13:17:30.364Z,3.16
2023-04-27T13:18:31.386Z,2.77
2023-04-27T13:19:30.419Z,2.89